Time;durP1;ratioP1;P1;durP2;ratioP2;P2;SDS_P1;SDS_P2;PMS_P1;PMS_P2;Temp;Humidity;BMP_temperature;BMP_pressure;BME280_temperature;BME280_humidity;BME280_pressure;Samples;Min_cycle;Max_cycle;Signal;HPM_P1;HPM_P2
2022/01/25 16:49:23;;;;;;;;;;;3.80;99.90;;;;;;5131254;27;20368;-73
2022/01/25 16:51:49;;;;;;;;;;;3.80;99.90;;;;;;5111807;28;19919;-74
2022/01/25 16:54:14;;;;;;;;;;;3.80;99.90;;;;;;5129980;28;19912;-74
2022/01/25 16:56:41;;;;;;;;;;;3.80;99.90;;;;;;5119420;28;19916;-74
2022/01/25 16:59:08;;;;;;;;;;;3.90;99.90;;;;;;5116908;28;19947;-74
2022/01/25 17:01:35;;;;;;;;;;;3.80;99.90;;;;;;5113189;28;19903;-74
2022/01/25 17:04:00;;;;;;;;;;;3.80;99.90;;;;;;5107329;28;19991;-74
2022/01/25 17:06:26;;;;;;;;;;;3.70;99.90;;;;;;5111848;28;19952;-75
2022/01/25 17:08:52;;;;;;;;;;;3.80;99.90;;;;;;5113623;28;19916;-75
2022/01/25 17:11:18;;;;;;;;;;;3.80;99.90;;;;;;5130722;28;19912;-75
2022/01/25 17:13:43;;;;;;;;;;;;;;;;;;5128648;28;19907;-79
2022/01/25 17:16:12;;;;;;;;;;;3.60;99.90;;;;;;5110934;28;19904;-75
2022/01/25 17:18:38;;;;;;;;;;;3.50;99.90;;;;;;5111610;28;19923;-75
2022/01/25 17:21:03;;;;;;;;;;;3.70;99.90;;;;;;5109573;28;20315;-74
2022/01/25 17:23:29;;;;;;;;;;;3.80;99.90;;;;;;5110396;28;19904;-74
2022/01/25 17:25:54;;;;;;;;;;;3.70;99.90;;;;;;5109634;28;20380;-75
2022/01/25 17:28:23;;;;;;;;;;;3.70;99.90;;;;;;5117867;28;20363;-75
2022/01/25 17:30:49;;;;;;;;;;;3.60;99.90;;;;;;5129850;28;19904;-75
2022/01/25 17:33:14;;;;;;;;;;;3.70;99.90;;;;;;5129939;28;19907;-75
2022/01/25 17:35:40;;;;;;;;;;;;;;;;;;5126292;28;20412;-75
2022/01/25 17:38:06;;;;;;;;;;;;;;;;;;5121391;28;20360;-74
2022/01/25 17:40:35;;;;;;;;;;;;;;;;;;5106708;28;20003;-75
2022/01/25 17:43:01;;;;;;;;;;;;;;;;;;5090885;28;20003;-75
2022/01/25 17:45:26;;;;;;;;;;;;;;;;;;5125060;28;20023;-78
2022/01/25 17:47:52;;;;;;;;;;;;;;;;;;5107058;28;19931;-76
2022/01/25 17:50:18;;;;;;;;;;;;;;;;;;5118573;28;19916;-74
2022/01/25 17:52:44;;;;;;;;;;;;;;;;;;5089331;28;20305;-76
2022/01/25 17:55:10;;;;;;;;;;;;;;;;;;5107977;28;19912;-75
2022/01/25 17:57:36;;;;;;;;;;;3.80;99.90;;;;;;5117226;28;19904;-76
2022/01/25 18:00:02;;;;;;;;;;;;;;;;;;5094542;28;19915;-75
2022/01/25 18:02:30;;;;;;;;;;;3.80;99.90;;;;;;5104497;28;20244;-73
2022/01/25 18:04:56;;;;;;;;;;;3.90;99.90;;;;;;5095926;28;20006;-75
2022/01/25 18:07:21;;;;;;;;;;;3.60;99.90;;;;;;5111942;28;20006;-75
2022/01/25 18:09:47;;;;;;;;;;;;;;;;;;5115589;28;19916;-76
2022/01/25 18:12:13;;;;;;;;;;;3.70;99.90;;;;;;5115659;28;19915;-74
2022/01/25 18:14:39;;;;;;;;;;;3.70;99.90;;;;;;5116082;28;19908;-70
2022/01/25 18:17:05;;;;;;;;;;;;;;;;;;5115441;28;19920;-71
2022/01/25 18:19:31;;;;;;;;;;;3.50;99.90;;;;;;5097674;28;20057;-76
2022/01/25 18:21:58;;;;;;;;;;;3.40;99.90;;;;;;5096700;28;19911;-75
2022/01/25 18:24:33;;;;;;;;;;;3.60;99.90;;;;;;5115528;28;19908;-76
2022/01/25 18:26:59;;;;;;;;;;;3.60;99.90;;;;;;5115371;28;19965;-74
2022/01/25 18:29:25;;;;;;;;;;;3.60;99.90;;;;;;5115847;28;19919;-76
2022/01/25 18:31:51;;;;;;;;;;;3.70;99.90;;;;;;5114925;28;20326;-76
2022/01/25 18:34:17;;;;;;;;;;;3.60;99.90;;;;;;5115730;28;19908;-74
2022/01/25 18:36:44;;;;;;;;;;;3.70;99.90;;;;;;5115675;28;19916;-74
2022/01/25 18:39:10;;;;;;;;;;;3.70;99.90;;;;;;5115091;28;19912;-74
2022/01/25 18:41:41;;;;;;;;;;;3.60;99.90;;;;;;5115647;28;20360;-74
2022/01/25 18:44:07;;;;;;;;;;;3.60;99.90;;;;;;5114959;28;20344;-74
2022/01/25 18:46:33;;;;;;;;;;;3.70;99.90;;;;;;5115306;28;19943;-74
2022/01/25 18:49:02;;;;;;;;;;;3.70;99.90;;;;;;5114145;28;19982;-73
2022/01/25 18:51:28;;;;;;;;;;;3.70;99.90;;;;;;5097295;28;20365;-73
2022/01/25 18:53:54;;;;;;;;;;;3.60;99.90;;;;;;5114781;28;19998;-73
2022/01/25 18:56:19;;;;;;;;;;;3.60;99.90;;;;;;5115269;28;19951;-73
2022/01/25 18:58:45;;;;;;;;;;;3.70;99.90;;;;;;5115496;28;19930;-72
2022/01/25 19:01:14;;;;;;;;;;;;;;;;;;5113278;28;19908;-73
2022/01/25 19:03:40;;;;;;;;;;;;;;;;;;5093393;28;19912;-71
2022/01/25 19:06:05;;;;;;;;;;;3.70;99.90;;;;;;5113808;28;19952;-69
2022/01/25 19:08:31;;;;;;;;;;;3.60;99.90;;;;;;5114986;28;19948;-70
2022/01/25 19:10:56;;;;;;;;;;;3.70;99.90;;;;;;5113557;28;19915;-70
2022/01/25 19:13:22;;;;;;;;;;;3.70;99.90;;;;;;5114245;28;19915;-71
2022/01/25 19:15:48;;;;;;;;;;;3.60;99.90;;;;;;5114897;28;19917;-73
2022/01/25 19:18:13;;;;;;;;;;;3.60;99.90;;;;;;5114323;28;20362;-72
2022/01/25 19:20:39;;;;;;;;;;;3.60;99.90;;;;;;5114962;28;19908;-71
2022/01/25 19:23:05;;;;;;;;;;;3.40;99.90;;;;;;5113909;28;19911;-73
2022/01/25 19:25:30;;;;;;;;;;;3.50;99.90;;;;;;5096182;28;19976;-73
2022/01/25 19:27:56;;;;;;;;;;;3.20;99.90;;;;;;5095695;28;19916;-73
2022/01/25 19:30:21;;;;;;;;;;;3.30;99.90;;;;;;5114630;28;19908;-70
2022/01/25 19:32:48;;;;;;;;;;;3.30;99.90;;;;;;5114309;28;19965;-70
2022/01/25 19:35:13;;;;;;;;;;;3.30;99.90;;;;;;5110546;28;19912;-70
2022/01/25 19:37:39;;;;;;;;;;;3.30;99.90;;;;;;5103502;28;20268;-71
2022/01/25 19:40:05;;;;;;;;;;;;;;;;;;5104177;28;19915;-71
2022/01/25 19:42:32;;;;;;;;;;;3.50;99.90;;;;;;5111670;28;19912;-71
2022/01/25 19:44:59;;;;;;;;;;;3.50;99.90;;;;;;5113794;28;19919;-71
2022/01/25 19:47:25;;;;;;;;;;;3.50;99.90;;;;;;5114043;28;20000;-72
2022/01/25 19:49:50;;;;;;;;;;;3.50;99.90;;;;;;5114248;28;20413;-72
2022/01/25 19:52:19;;;;;;;;;;;3.80;99.90;;;;;;5113672;28;20284;-71
2022/01/25 19:54:45;;;;;;;;;;;3.70;99.90;;;;;;5114149;28;20001;-71
2022/01/25 19:57:12;;;;;;;;;;;3.80;99.90;;;;;;5113401;28;20342;-72
2022/01/25 19:59:39;;;;;;;;;;;3.70;99.90;;;;;;5114024;28;19911;-72
2022/01/25 20:02:04;;;;;;;;;;;;;;;;;;5113495;28;20006;-75
2022/01/25 20:04:31;;;;;;;;;;;3.80;99.90;;;;;;5113981;28;19951;-72
2022/01/25 20:07:00;;;;;;;;;;;3.60;99.90;;;;;;5113096;28;20002;-72
2022/01/25 20:09:32;;;;;;;;;;;3.80;99.90;;;;;;5113877;28;20334;-66
2022/01/25 20:12:02;;;;;;;;;;;;;;;;;;5111489;28;19912;-73
2022/01/25 20:14:27;;;;;;;;;;;3.80;99.90;;;;;;5113605;28;19907;-73
2022/01/25 20:16:53;;;;;;;;;;;3.70;99.90;;;;;;5113499;28;20287;-72
2022/01/25 20:19:19;;;;;;;;;;;;;;;;;;5113262;28;20352;-73
2022/01/25 20:21:52;;;;;;;;;;;3.70;99.90;;;;;;5113436;28;19908;-72
2022/01/25 20:27:03;;;;;;;;;;;3.70;99.90;;;;;;5113523;28;19969;-73
2022/01/25 20:29:35;;;;;;;;;;;3.70;99.90;;;;;;5113797;28;19954;-72
2022/01/25 20:32:01;;;;;;;;;;;3.60;99.90;;;;;;5094477;28;19908;-73
2022/01/25 20:34:27;;;;;;;;;;;;;;;;;;5095401;28;19908;-72
2022/01/25 20:36:52;;;;;;;;;;;;;;;;;;5113549;28;19908;-72
2022/01/25 20:39:18;;;;;;;;;;;3.50;99.90;;;;;;5112773;28;19976;-72
2022/01/25 20:41:45;;;;;;;;;;;;;;;;;;5113196;28;19915;-72
2022/01/25 20:44:11;;;;;;;;;;;3.60;99.90;;;;;;5112831;28;19908;-72
2022/01/25 20:46:36;;;;;;;;;;;3.70;99.90;;;;;;5113375;28;19908;-73
2022/01/25 20:49:03;;;;;;;;;;;;;;;;;;5112904;28;19979;-73
2022/01/25 20:51:29;;;;;;;;;;;3.90;99.90;;;;;;5112953;28;19912;-72
2022/01/25 20:53:54;;;;;;;;;;;3.90;99.90;;;;;;5113438;28;19912;-73
2022/01/25 20:56:20;;;;;;;;;;;3.80;99.90;;;;;;5094491;28;19915;-73
2022/01/25 20:58:50;;;;;;;;;;;3.70;99.90;;;;;;5113397;28;19961;-73
2022/01/25 21:01:16;;;;;;;;;;;3.70;99.90;;;;;;5112404;28;20375;-73
2022/01/25 21:03:47;;;;;;;;;;;3.60;99.90;;;;;;5113242;28;19914;-72
2022/01/25 21:08:58;;;;;;;;;;;;;;;;;;5112716;28;20378;-79
2022/01/25 21:11:24;;;;;;;;;;;3.80;99.90;;;;;;5113537;28;19908;-72
2022/01/25 21:13:52;;;;;;;;;;;3.50;99.90;;;;;;5112368;28;20398;-73
2022/01/25 21:16:19;;;;;;;;;;;3.40;99.90;;;;;;5112553;28;20010;-72
2022/01/25 21:18:44;;;;;;;;;;;;;;;;;;5112764;28;19951;-74
2022/01/25 21:21:11;;;;;;;;;;;3.20;99.90;;;;;;5112721;28;19934;-73
2022/01/25 21:23:41;;;;;;;;;;;3.30;99.90;;;;;;5113046;28;19908;-73
2022/01/25 21:26:08;;;;;;;;;;;3.20;99.90;;;;;;5112357;28;19908;-74
2022/01/25 21:28:33;;;;;;;;;;;;;;;;;;5112684;28;19963;-73
2022/01/25 21:30:59;;;;;;;;;;;;;;;;;;5112648;28;19934;-79
2022/01/25 21:33:25;;;;;;;;;;;3.30;99.90;;;;;;5094407;28;20318;-74
2022/01/25 21:35:51;;;;;;;;;;;3.30;99.90;;;;;;5116196;28;20310;-72
2022/01/25 21:38:17;;;;;;;;;;;;;;;;;;5115923;28;19954;-74
2022/01/25 21:40:42;;;;;;;;;;;3.40;99.90;;;;;;5116407;28;19953;-73
2022/01/25 21:43:08;;;;;;;;;;;3.70;99.90;;;;;;5115810;28;20279;-72
2022/01/25 21:45:34;;;;;;;;;;;;;;;;;;5116745;28;19977;-73
2022/01/25 21:48:00;;;;;;;;;;;;;;;;;;5116391;28;19924;-73
2022/01/25 21:50:25;;;;;;;;;;;;;;;;;;5098351;28;19951;-73
2022/01/25 21:52:53;;;;;;;;;;;3.40;99.90;;;;;;5116591;28;20412;-73
2022/01/25 21:55:19;;;;;;;;;;;;;;;;;;5097738;28;20351;-73
2022/01/25 21:57:44;;;;;;;;;;;3.40;99.90;;;;;;5116521;28;19915;-73
2022/01/25 22:00:10;;;;;;;;;;;3.30;99.90;;;;;;5097741;28;19908;-74
2022/01/25 22:02:42;;;;;;;;;;;;;;;;;;5116030;28;19915;-73
2022/01/25 22:05:09;;;;;;;;;;;3.50;99.90;;;;;;5115473;28;20329;-75
2022/01/25 22:07:43;;;;;;;;;;;3.30;99.90;;;;;;5116265;28;19924;-72
2022/01/25 22:10:09;;;;;;;;;;;3.30;99.90;;;;;;5115693;28;19989;-74
2022/01/25 22:12:47;;;;;;;;;;;;;;;;;;5116177;28;19908;-74
2022/01/25 22:15:13;;;;;;;;;;;3.30;99.90;;;;;;5115628;28;19907;-71
2022/01/25 22:17:41;;;;;;;;;;;;;;;;;;5116094;28;20019;-72
2022/01/25 22:20:08;;;;;;;;;;;3.30;99.90;;;;;;5115503;28;19914;-73
2022/01/25 22:22:33;;;;;;;;;;;3.00;99.90;;;;;;5115990;28;19912;-73
2022/01/25 22:24:59;;;;;;;;;;;;;;;;;;5115973;28;20405;-74
2022/01/25 22:27:25;;;;;;;;;;;3.10;99.90;;;;;;5115184;28;20072;-74
2022/01/25 22:29:50;;;;;;;;;;;3.20;99.90;;;;;;5115774;28;19914;-72
2022/01/25 22:32:16;;;;;;;;;;;2.80;99.90;;;;;;5115370;28;20264;-72
2022/01/25 22:34:42;;;;;;;;;;;;;;;;;;5115607;28;19935;-72
2022/01/25 22:37:07;;;;;;;;;;;2.90;99.90;;;;;;5115002;28;20305;-73
2022/01/25 22:39:33;;;;;;;;;;;3.10;99.90;;;;;;5115883;28;19915;-74
2022/01/25 22:41:58;;;;;;;;;;;3.10;99.90;;;;;;5115454;28;19908;-74
2022/01/25 22:44:24;;;;;;;;;;;3.10;99.90;;;;;;5114829;28;19912;-74
2022/01/25 22:47:00;;;;;;;;;;;3.00;99.90;;;;;;5114950;28;20344;-74
2022/01/25 22:52:06;;;;;;;;;;;3.10;99.90;;;;;;5114789;28;19949;-74
2022/01/25 22:54:32;;;;;;;;;;;3.20;99.90;;;;;;5115225;28;19908;-74
2022/01/25 22:56:57;;;;;;;;;;;3.20;99.90;;;;;;5115096;28;19916;-74
2022/01/25 22:59:24;;;;;;;;;;;3.10;99.90;;;;;;5114524;28;19915;-75
2022/01/25 23:04:34;;;;;;;;;;;2.90;99.90;;;;;;5105466;28;19915;-74
2022/01/25 23:06:59;;;;;;;;;;;2.90;99.90;;;;;;5103625;28;19908;-73
2022/01/25 23:09:25;;;;;;;;;;;;;;;;;;5114352;28;19912;-73
2022/01/25 23:11:50;;;;;;;;;;;2.60;99.90;;;;;;5115205;28;19915;-73
2022/01/25 23:14:32;;;;;;;;;;;2.90;99.90;;;;;;5114337;28;20348;-74
2022/01/25 23:17:04;;;;;;;;;;;;;;;;;;5114916;28;19919;-73
2022/01/25 23:19:44;;;;;;;;;;;3.00;99.90;;;;;;5096473;28;19915;-74
2022/01/25 23:22:10;;;;;;;;;;;;;;;;;;5095827;28;20015;-74
2022/01/25 23:24:35;;;;;;;;;;;3.10;99.90;;;;;;5111236;28;20368;-74
2022/01/25 23:27:01;;;;;;;;;;;3.10;99.90;;;;;;5105935;28;19908;-74
2022/01/25 23:29:28;;;;;;;;;;;3.10;99.90;;;;;;5113717;28;20245;-74
2022/01/25 23:32:04;;;;;;;;;;;3.00;99.90;;;;;;5114792;28;19908;-74
2022/01/25 23:34:47;;;;;;;;;;;2.90;99.90;;;;;;5095663;28;19994;-74
2022/01/25 23:37:13;;;;;;;;;;;3.00;99.90;;;;;;5110132;28;20368;-74
2022/01/25 23:39:47;;;;;;;;;;;3.20;99.90;;;;;;5103090;28;20046;-74
2022/01/25 23:42:18;;;;;;;;;;;;;;;;;;5110779;28;19952;-74
2022/01/25 23:44:51;;;;;;;;;;;2.80;99.90;;;;;;5114537;28;19907;-74
2022/01/25 23:47:28;;;;;;;;;;;;;;;;;;5113384;28;19931;-74
2022/01/25 23:50:05;;;;;;;;;;;2.90;99.90;;;;;;5114258;28;19972;-74
